Eleonora E — MEDD4 — position and weather

sailwx.info

Track history (hours):
 
Tides and Currents Weather Stations Pressure Air Temp Water Temp Dewpoint Dewpoint Depression Visibility Wind Speed Wind Dir Waves Ship Positions

Eleonora E

Last reported at 2018-Apr-25 21:23 UTC. Time now 2018-Apr-26 00:16 UTC.
Position N 38°32' W 028°38'.

Length 35 m; draft 5.4 m.

Type: Sailing vessel. MMSI: 235008680.

Date/timePositionNaut miles runAvg speedWind from/ knotsBaromVisibWave heightAir tempDewpointWater temp
2018-Apr-25 21:23N 38°32' W 028°38'0 0.0
2018-Apr-25 20:06N 38°32' W 028°38'0 0.0
2018-Apr-25 19:48N 38°32' W 028°38'0 0.0
2018-Apr-25 18:28N 38°32' W 028°38'0 0.0
2018-Apr-25 18:00N 38°32' W 028°38'0 0.0
2018-Apr-25 17:30N 38°32' W 028°38'0 0.0
2018-Apr-25 16:56N 38°32' W 028°38'0 0.0
2018-Apr-25 15:30N 38°32' W 028°38'0 0.1
2018-Apr-25 13:41N 38°32' W 028°37'0 0.0
2018-Apr-25 13:26N 38°32' W 028°37'0 0.0
2018-Apr-25 12:55N 38°32' W 028°37'0 0.0
2018-Apr-25 12:29N 38°32' W 028°37'0 0.0
2018-Apr-25 12:00N 38°32' W 028°37'0 0.0
2018-Apr-25 09:06N 38°32' W 028°37'0 0.0
2018-Apr-25 08:51N 38°32' W 028°37'0 0.0
2018-Apr-25 08:21N 38°32' W 028°37'0 0.8
2018-Apr-25 07:52N 38°32' W 028°37'2 5.5
2018-Apr-25 07:30N 38°30' W 028°38'3 6.1
2018-Apr-25 07:00N 38°30' W 028°42'3 6.0
2018-Apr-25 06:30N 38°29' W 028°46'3 5.9
2018-Apr-25 06:00N 38°28' W 028°49'3 5.7
2018-Apr-25 05:30N 38°28' W 028°53'3 5.7
2018-Apr-25 05:00N 38°27' W 028°56'3 5.6
2018-Apr-25 04:30N 38°26' W 028°60'3 5.6
2018-Apr-25 04:00N 38°25' W 029°03'3 5.8
2018-Apr-25 03:30N 38°24' W 029°07'3 5.7
2018-Apr-25 03:00N 38°23' W 029°10'3 6.1
2018-Apr-25 02:31N 38°21' W 029°13'3 6.0
2018-Apr-25 02:00N 38°20' W 029°17'3 5.8
2018-Apr-25 01:30N 38°20' W 029°21'3 6.0
2018-Apr-25 01:00N 38°19' W 029°24'3 6.2
2018-Apr-25 00:30N 38°18' W 029°28'3 6.5
2018-Apr-25 00:00N 38°18' W 029°32'3 6.3
2018-Apr-24 23:30N 38°17' W 029°36'3 6.2
2018-Apr-24 23:00N 38°15' W 029°40'3 6.3
2018-Apr-24 22:30N 38°14' W 029°43'5 6.9
2018-Apr-24 21:45N 38°12' W 029°49'2 6.9
2018-Apr-24 21:30N 38°11' W 029°51'  
Track history (hours):
 
Tides and Currents Weather Stations Pressure Air Temp Water Temp Dewpoint Dewpoint Depression Visibility Wind Speed Wind Dir Waves Ship Positions

Eleonora E

Last reported at 2018-Apr-25 21:23 UTC. Time now 2018-Apr-26 00:16 UTC.
Position N 38°32' W 028°38'.

Length 35 m; draft 5.4 m.

Type: Sailing vessel. MMSI: 235008680.

Date/timePositionNaut miles runAvg speedWind from/ knotsBaromVisibWave heightAir tempDewpointWater temp
2018-Apr-25 21:23N 38°32' W 028°38'0 0.0
2018-Apr-25 20:06N 38°32' W 028°38'0 0.0
2018-Apr-25 19:48N 38°32' W 028°38'0 0.0
2018-Apr-25 18:28N 38°32' W 028°38'0 0.0
2018-Apr-25 18:00N 38°32' W 028°38'0 0.0
2018-Apr-25 17:30N 38°32' W 028°38'0 0.0
2018-Apr-25 16:56N 38°32' W 028°38'0 0.0
2018-Apr-25 15:30N 38°32' W 028°38'0 0.1
2018-Apr-25 13:41N 38°32' W 028°37'0 0.0
2018-Apr-25 13:26N 38°32' W 028°37'0 0.0
2018-Apr-25 12:55N 38°32' W 028°37'0 0.0
2018-Apr-25 12:29N 38°32' W 028°37'0 0.0
2018-Apr-25 12:00N 38°32' W 028°37'0 0.0
2018-Apr-25 09:06N 38°32' W 028°37'0 0.0
2018-Apr-25 08:51N 38°32' W 028°37'0 0.0
2018-Apr-25 08:21N 38°32' W 028°37'0 0.8
2018-Apr-25 07:52N 38°32' W 028°37'2 5.5
2018-Apr-25 07:30N 38°30' W 028°38'3 6.1
2018-Apr-25 07:00N 38°30' W 028°42'3 6.0
2018-Apr-25 06:30N 38°29' W 028°46'3 5.9
2018-Apr-25 06:00N 38°28' W 028°49'3 5.7
2018-Apr-25 05:30N 38°28' W 028°53'3 5.7
2018-Apr-25 05:00N 38°27' W 028°56'3 5.6
2018-Apr-25 04:30N 38°26' W 028°60'3 5.6
2018-Apr-25 04:00N 38°25' W 029°03'3 5.8
2018-Apr-25 03:30N 38°24' W 029°07'3 5.7
2018-Apr-25 03:00N 38°23' W 029°10'3 6.1
2018-Apr-25 02:31N 38°21' W 029°13'3 6.0
2018-Apr-25 02:00N 38°20' W 029°17'3 5.8
2018-Apr-25 01:30N 38°20' W 029°21'3 6.0
2018-Apr-25 01:00N 38°19' W 029°24'3 6.2
2018-Apr-25 00:30N 38°18' W 029°28'3 6.5
2018-Apr-25 00:00N 38°18' W 029°32'3 6.3
2018-Apr-24 23:30N 38°17' W 029°36'3 6.2
2018-Apr-24 23:00N 38°15' W 029°40'3 6.3
2018-Apr-24 22:30N 38°14' W 029°43'5 6.9
2018-Apr-24 21:45N 38°12' W 029°49'2 6.9
2018-Apr-24 21:30N 38°11' W 029°51'  

Dump ship's entire track history